Time;durP1;ratioP1;P1;durP2;ratioP2;P2;SDS_P1;SDS_P2;PMS_P1;PMS_P2;Temp;Humidity;BMP_temperature;BMP_pressure;BME280_temperature;BME280_humidity;BME280_pressure;Samples;Min_cycle;Max_cycle;Signal;HPM_P1;HPM_P2
2022/01/09 00:00:14;;;;;;;2.40;1.20;;;;;;;5.59;85.35;96127.00;4859145;29;20652;-84
2022/01/09 00:02:44;;;;;;;3.63;1.17;;;;;;;5.60;86.16;96115.75;4849105;29;21094;-83
2022/01/09 00:05:13;;;;;;;1.53;1.03;;;;;;;5.61;87.14;96112.22;4827507;29;20673;-83
2022/01/09 00:07:43;;;;;;;2.10;1.30;;;;;;;5.63;86.50;96118.06;4830399;29;21360;-84
2022/01/09 00:10:12;;;;;;;2.23;1.10;;;;;;;5.62;87.20;96101.75;4843172;29;20651;-84
2022/01/09 00:12:40;;;;;;;2.50;1.10;;;;;;;5.64;88.23;96106.81;4846278;29;20640;-84
2022/01/09 00:15:10;;;;;;;2.33;1.40;;;;;;;5.61;88.01;96099.28;4842400;29;20679;-84
2022/01/09 00:17:38;;;;;;;1.50;1.17;;;;;;;5.65;87.84;96098.09;4830237;29;21305;-84
2022/01/09 00:20:10;;;;;;;1.83;1.07;;;;;;;5.71;88.83;96097.59;4845609;29;20642;-84
2022/01/09 00:22:43;;;;;;;2.77;1.37;;;;;;;5.66;89.32;96099.72;4845813;29;20650;-84
2022/01/09 00:25:12;;;;;;;1.60;1.00;;;;;;;5.69;88.71;96089.94;4862043;29;21014;-84
2022/01/09 00:27:41;;;;;;;3.50;1.40;;;;;;;5.72;89.42;96087.13;4848890;29;20637;-84
2022/01/09 00:30:11;;;;;;;2.30;1.10;;;;;;;5.72;89.92;96079.38;4835771;29;21246;-84
2022/01/09 00:32:39;;;;;;;1.50;1.10;;;;;;;5.77;89.42;96077.28;4849177;29;20643;-84
2022/01/09 00:35:10;;;;;;;4.07;1.00;;;;;;;5.77;89.62;96072.09;4849889;29;20669;-84
2022/01/09 00:37:38;;;;;;;1.47;1.10;;;;;;;5.77;89.50;96069.53;4847545;29;20643;-85
2022/01/09 00:40:07;;;;;;;2.20;1.20;;;;;;;5.78;90.47;96063.38;4850012;29;20748;-84
2022/01/09 00:42:35;;;;;;;1.90;1.00;;;;;;;5.79;90.62;96053.88;4849530;29;20748;-85
2022/01/09 00:45:05;;;;;;;2.03;1.03;;;;;;;5.82;89.98;96043.28;4868248;29;20728;-84
2022/01/09 00:47:33;;;;;;;2.13;1.10;;;;;;;5.82;90.03;96043.28;4864949;29;21213;-84
2022/01/09 00:50:01;;;;;;;1.60;1.00;;;;;;;5.86;90.79;96042.88;4833528;29;20639;-84
2022/01/09 00:52:31;;;;;;;1.20;0.80;;;;;;;5.89;90.96;96044.41;4852131;29;21188;-84
2022/01/09 00:54:59;;;;;;;1.60;0.80;;;;;;;5.85;91.01;96038.66;4850104;29;21028;-84
2022/01/09 00:57:28;;;;;;;1.33;0.60;;;;;;;5.89;91.63;96031.47;4866637;29;21202;-84
2022/01/09 00:59:56;;;;;;;3.17;0.83;;;;;;;5.90;91.79;96040.88;4852037;29;20651;-84
2022/01/09 01:02:24;;;;;;;1.43;0.80;;;;;;;5.93;91.81;96025.91;4851074;29;20637;-85
2022/01/09 01:04:52;;;;;;;0.80;0.50;;;;;;;5.91;91.33;96027.81;4851300;29;20649;-84
2022/01/09 01:07:21;;;;;;;0.83;0.50;;;;;;;5.95;92.02;96021.41;4832478;29;20670;-84
2022/01/09 01:09:50;;;;;;;0.70;0.40;;;;;;;5.97;92.32;96018.72;4850849;29;20653;-83
2022/01/09 01:12:18;;;;;;;1.07;0.50;;;;;;;5.99;91.50;96016.84;4833671;29;20647;-84
2022/01/09 01:14:46;;;;;;;0.87;0.50;;;;;;;5.99;92.62;96017.66;4848695;29;20674;-84
2022/01/09 01:17:15;;;;;;;1.33;0.60;;;;;;;6.03;92.46;96015.63;4831900;29;20649;-84
2022/01/09 01:19:44;;;;;;;0.90;0.50;;;;;;;6.04;92.50;96010.31;4831808;29;20658;-84
2022/01/09 01:22:30;;;;;;;1.03;0.50;;;;;;;6.10;92.14;96008.06;4845838;29;20633;-84
2022/01/09 01:25:00;;;;;;;0.90;0.50;;;;;;;6.09;91.80;96015.94;4848249;29;20651;-84
2022/01/09 01:27:29;;;;;;;0.83;0.43;;;;;;;6.10;92.27;96014.97;4829063;29;20657;-84
2022/01/09 01:29:58;;;;;;;0.87;0.40;;;;;;;6.14;91.92;96014.59;4849025;29;20685;-84
2022/01/09 01:32:26;;;;;;;0.90;0.50;;;;;;;6.17;91.22;96014.31;4850183;29;20727;-84
2022/01/09 01:34:54;;;;;;;1.23;0.57;;;;;;;6.25;91.26;96017.06;4845978;29;20677;-83
2022/01/09 01:37:23;;;;;;;1.70;0.50;;;;;;;6.25;91.40;96011.91;4863133;29;20630;-84
2022/01/09 01:39:51;;;;;;;1.03;0.57;;;;;;;6.27;90.95;96009.19;4848825;29;20635;-84
2022/01/09 01:42:21;;;;;;;1.10;0.60;;;;;;;6.30;90.65;96002.00;4850567;29;21013;-84
2022/01/09 01:44:50;;;;;;;0.93;0.53;;;;;;;6.30;90.26;96001.16;4846939;29;20707;-84
2022/01/09 01:47:20;;;;;;;0.90;0.50;;;;;;;6.34;91.23;95998.19;4862289;29;21024;-84
2022/01/09 01:49:49;;;;;;;0.93;0.50;;;;;;;6.34;90.99;95999.97;4832835;29;20665;-84
2022/01/09 01:52:25;;;;;;;0.73;0.40;;;;;;;6.34;90.82;95995.59;4845679;29;20753;-84
2022/01/09 01:54:53;;;;;;;1.20;0.50;;;;;;;6.39;90.49;95990.03;4851639;29;21033;-84
2022/01/09 01:57:23;;;;;;;1.50;0.50;;;;;;;6.43;89.66;95984.47;4846319;29;20638;-83
2022/01/09 01:59:51;;;;;;;0.90;0.50;;;;;;;6.46;89.77;95989.38;4848006;29;21230;-83
2022/01/09 02:02:19;;;;;;;1.00;0.63;;;;;;;6.48;90.36;95979.72;4849057;29;21533;-85
2022/01/09 02:04:47;;;;;;;0.83;0.50;;;;;;;6.48;90.48;95982.31;4846118;29;20639;-84
2022/01/09 02:07:16;;;;;;;0.90;0.40;;;;;;;6.50;90.53;95980.41;4845942;29;20747;-84
2022/01/09 02:09:44;;;;;;;1.90;0.50;;;;;;;6.50;90.25;95975.22;4846715;29;21028;-85
2022/01/09 02:12:12;;;;;;;1.03;0.50;;;;;;;6.49;89.88;95968.41;4847297;29;20648;-84
2022/01/09 02:14:46;;;;;;;0.80;0.40;;;;;;;6.47;89.27;95978.06;4848599;29;20646;-84
2022/01/09 02:17:18;;;;;;;0.80;0.40;;;;;;;6.47;89.96;95979.84;4845883;29;20651;-84
2022/01/09 02:19:54;;;;;;;0.90;0.50;;;;;;;6.45;89.52;95972.22;4847281;29;20658;-84
2022/01/09 02:22:24;;;;;;;0.90;0.50;;;;;;;6.44;89.17;95977.53;4847727;29;21168;-84
2022/01/09 02:24:52;;;;;;;0.80;0.40;;;;;;;6.50;89.54;95980.41;4863862;29;20642;-83
2022/01/09 02:27:20;;;;;;;0.80;0.40;;;;;;;6.48;90.42;95974.56;4860018;29;20647;-84
2022/01/09 02:29:48;;;;;;;1.17;0.40;;;;;;;6.53;89.06;95971.56;4846345;29;20662;-84
2022/01/09 02:32:17;;;;;;;0.80;0.40;;;;;;;6.51;89.85;95984.63;4863566;29;20650;-84
2022/01/09 02:34:47;;;;;;;1.00;0.43;;;;;;;6.47;89.75;95980.66;4849330;29;21079;-84
2022/01/09 02:37:17;;;;;;;0.90;0.40;;;;;;;6.46;89.88;95984.19;4848896;29;20648;-83
2022/01/09 02:39:45;;;;;;;0.80;0.50;;;;;;;6.47;90.01;95991.03;4862876;29;20642;-84
2022/01/09 02:42:22;;;;;;;0.73;0.37;;;;;;;6.45;90.40;95990.34;4846990;29;20638;-84
2022/01/09 02:44:51;;;;;;;0.73;0.30;;;;;;;6.43;89.96;95981.88;4849781;29;20645;-84
2022/01/09 02:47:20;;;;;;;0.90;0.40;;;;;;;6.39;90.81;95982.25;4847205;29;21414;-84
2022/01/09 02:49:51;;;;;;;0.70;0.33;;;;;;;6.32;91.40;95987.16;4831584;29;20644;-83
2022/01/09 02:52:32;;;;;;;0.80;0.40;;;;;;;6.33;91.44;95978.44;4831043;29;20645;-83
2022/01/09 02:55:11;;;;;;;1.40;0.40;;;;;;;6.35;91.55;95989.47;4845154;29;20637;-84
2022/01/09 02:57:42;;;;;;;0.87;0.40;;;;;;;6.34;91.45;95977.47;4830384;29;20654;-84
2022/01/09 03:00:13;;;;;;;0.60;0.30;;;;;;;6.34;90.96;95977.47;4861233;29;20642;-84
2022/01/09 03:02:41;;;;;;;0.90;0.33;;;;;;;6.35;91.65;95984.31;4847113;29;20648;-84
2022/01/09 03:05:10;;;;;;;0.70;0.37;;;;;;;6.34;91.19;95990.41;4845829;29;20669;-85
2022/01/09 03:07:41;;;;;;;0.80;0.40;;;;;;;6.36;91.88;95980.78;4860117;29;20674;-85
2022/01/09 03:10:10;;;;;;;3.37;0.50;;;;;;;6.36;91.73;95983.38;4832003;29;20659;-84
2022/01/09 03:12:39;;;;;;;0.70;0.30;;;;;;;6.33;92.00;95981.03;4846777;29;20652;-84
2022/01/09 03:15:08;;;;;;;0.97;0.30;;;;;;;6.34;91.76;95984.44;4828509;29;20662;-85
2022/01/09 03:17:37;;;;;;;0.80;0.40;;;;;;;6.35;91.34;95981.72;4846322;29;20665;-85
2022/01/09 03:20:08;;;;;;;2.93;0.40;;;;;;;6.36;91.43;95980.78;4829343;29;20684;-84
2022/01/09 03:22:36;;;;;;;0.97;0.43;;;;;;;6.38;91.23;95994.41;4833790;29;21036;-84
2022/01/09 03:25:07;;;;;;;0.70;0.30;;;;;;;6.36;91.87;95993.72;4860973;29;20657;-85
2022/01/09 03:27:37;;;;;;;2.67;0.30;;;;;;;6.35;92.19;95986.88;4844850;29;20780;-84
2022/01/09 03:30:08;;;;;;;0.70;0.40;;;;;;;6.32;91.73;95989.75;4849264;29;20650;-84
2022/01/09 03:32:37;;;;;;;0.90;0.40;;;;;;;6.33;91.98;95991.38;4847948;29;20649;-84
2022/01/09 03:35:06;;;;;;;2.87;0.40;;;;;;;6.29;92.51;95996.97;4847858;29;21291;-84
2022/01/09 03:37:35;;;;;;;0.80;0.33;;;;;;;6.31;92.56;95992.47;4845856;29;20653;-84
2022/01/09 03:40:03;;;;;;;0.80;0.30;;;;;;;6.28;92.07;96001.28;4847293;29;20650;-84
2022/01/09 03:42:33;;;;;;;0.73;0.40;;;;;;;6.28;92.99;96005.66;4860795;29;20642;-84
2022/01/09 03:45:01;;;;;;;1.00;0.30;;;;;;;6.21;93.73;96005.38;4849659;29;20654;-84
2022/01/09 03:47:29;;;;;;;0.80;0.30;;;;;;;6.15;94.88;96008.47;4845317;29;21328;-84
2022/01/09 03:49:57;;;;;;;0.60;0.30;;;;;;;6.10;95.13;96002.88;4849416;29;20675;-84
2022/01/09 03:52:27;;;;;;;1.20;0.37;;;;;;;6.10;96.19;96013.22;4845480;29;21024;-85
2022/01/09 03:54:56;;;;;;;0.70;0.30;;;;;;;6.08;96.71;96006.53;4845420;29;20670;-85
2022/01/09 03:57:24;;;;;;;1.00;0.40;;;;;;;6.03;96.82;96010.44;4861538;29;20660;-86
2022/01/09 03:59:53;;;;;;;0.80;0.30;;;;;;;5.98;97.19;96007.44;4861227;29;21023;-86
2022/01/09 04:02:22;;;;;;;0.83;0.30;;;;;;;5.97;97.06;96013.53;4846786;29;21250;-86
2022/01/09 04:04:50;;;;;;;1.23;0.40;;;;;;;5.95;97.01;96008.50;4843770;29;20642;-86
2022/01/09 04:07:18;;;;;;;0.67;0.30;;;;;;;5.97;96.54;96014.38;4842284;29;20666;-84
2022/01/09 04:09:47;;;;;;;1.20;0.40;;;;;;;5.95;97.09;96012.84;4848416;29;20648;-84
2022/01/09 04:12:18;;;;;;;1.30;0.50;;;;;;;5.94;97.88;96024.97;4845402;29;20642;-84
2022/01/09 04:14:47;;;;;;;0.77;0.40;;;;;;;5.99;97.94;96024.59;4861806;29;20745;-84
2022/01/09 04:17:25;;;;;;;1.10;0.40;;;;;;;5.98;98.15;96031.50;4827232;29;20646;-84
2022/01/09 04:19:53;;;;;;;1.63;0.53;;;;;;;6.02;98.40;96032.09;4845790;29;22792;-84
2022/01/09 04:22:22;;;;;;;0.60;0.23;;;;;;;5.98;98.08;96034.09;4846561;29;20655;-84
2022/01/09 04:24:50;;;;;;;0.80;0.40;;;;;;;6.00;98.13;96039.16;4844899;29;20805;-84
2022/01/09 04:27:18;;;;;;;0.93;0.33;;;;;;;6.00;97.80;96033.97;4848727;29;21007;-84
2022/01/09 04:29:47;;;;;;;0.77;0.30;;;;;;;5.98;98.31;96046.22;4845281;29;20647;-84
2022/01/09 04:32:17;;;;;;;0.80;0.37;;;;;;;5.96;98.57;96050.72;4844500;29;21066;-84
2022/01/09 04:34:45;;;;;;;0.70;0.30;;;;;;;5.99;98.49;96058.22;4846793;29;20649;-84
2022/01/09 04:37:13;;;;;;;1.37;0.40;;;;;;;6.00;98.25;96060.69;4857853;29;20657;-84
2022/01/09 04:39:42;;;;;;;0.83;0.33;;;;;;;5.96;98.07;96063.66;4858028;29;21201;-85
2022/01/09 04:42:10;;;;;;;0.70;0.30;;;;;;;5.98;98.19;96064.34;4859437;29;20634;-84
2022/01/09 04:44:38;;;;;;;0.93;0.30;;;;;;;6.03;97.98;96072.53;4844589;29;20658;-84
2022/01/09 04:47:12;;;;;;;1.23;0.30;;;;;;;6.07;97.95;96086.84;4847527;29;22227;-84
2022/01/09 04:49:44;;;;;;;1.20;0.40;;;;;;;6.14;97.75;96099.97;4844771;29;20662;-84
2022/01/09 04:52:16;;;;;;;0.90;0.40;;;;;;;6.17;97.96;96107.47;4844394;29;20695;-84
2022/01/09 04:54:45;;;;;;;0.90;0.30;;;;;;;6.23;98.60;96114.72;4862705;29;21211;-85
2022/01/09 04:57:14;;;;;;;0.80;0.37;;;;;;;6.27;98.15;96129.06;4861805;29;20993;-85
2022/01/09 04:59:42;;;;;;;1.10;0.43;;;;;;;6.30;98.30;96144.34;4842974;29;20648;-84
2022/01/09 05:02:10;;;;;;;1.10;0.40;;;;;;;6.34;98.87;96140.53;4846559;29;20634;-84
2022/01/09 05:04:38;;;;;;;0.70;0.30;;;;;;;6.36;98.14;96141.25;4828354;29;20683;-84
2022/01/09 05:07:09;;;;;;;1.30;0.30;;;;;;;6.30;98.00;96144.34;4845456;29;20684;-85
2022/01/09 05:09:37;;;;;;;1.53;0.50;;;;;;;6.29;97.97;96163.41;4846420;29;20664;-84
2022/01/09 05:12:10;;;;;;;1.27;0.37;;;;;;;6.33;98.17;96161.38;4847358;29;20641;-84
2022/01/09 05:14:39;;;;;;;0.97;0.50;;;;;;;6.39;97.18;96169.47;4846647;29;20656;-84
2022/01/09 05:17:07;;;;;;;0.80;0.30;;;;;;;6.38;96.77;96172.19;4848533;29;21039;-84
2022/01/09 05:19:36;;;;;;;0.80;0.40;;;;;;;6.28;97.66;96187.63;4849770;29;20752;-84
2022/01/09 05:22:08;;;;;;;0.80;0.40;;;;;;;6.29;97.01;96204.00;4849916;29;20641;-84
2022/01/09 05:24:37;;;;;;;0.70;0.30;;;;;;;6.28;97.08;96212.69;4864294;29;20649;-85
2022/01/09 05:27:06;;;;;;;0.87;0.40;;;;;;;6.17;96.19;96213.56;4865222;29;20656;-84
2022/01/09 05:29:34;;;;;;;0.70;0.30;;;;;;;6.13;95.95;96208.75;4849967;29;20655;-85
2022/01/09 05:32:02;;;;;;;1.70;0.40;;;;;;;6.06;96.00;96223.16;4848047;29;20648;-84
2022/01/09 05:34:31;;;;;;;0.80;0.37;;;;;;;6.02;96.43;96232.09;4847414;29;20656;-84
2022/01/09 05:36:59;;;;;;;0.70;0.30;;;;;;;5.98;96.64;96237.63;4846340;29;20680;-84
2022/01/09 05:39:28;;;;;;;0.70;0.30;;;;;;;5.91;96.01;96250.25;4847746;29;20650;-84
2022/01/09 05:41:58;;;;;;;0.60;0.30;;;;;;;5.91;96.72;96275.28;4847373;29;20666;-84
2022/01/09 05:44:29;;;;;;;1.03;0.37;;;;;;;5.84;96.18;96274.94;4848333;29;20755;-84
2022/01/09 05:46:57;;;;;;;0.70;0.30;;;;;;;5.79;95.67;96291.78;4846716;29;20646;-84
2022/01/09 05:49:25;;;;;;;0.80;0.40;;;;;;;5.68;95.22;96295.16;4832541;29;20714;-84
2022/01/09 05:51:53;;;;;;;0.70;0.30;;;;;;;5.60;95.87;96308.81;4848646;29;20649;-85
2022/01/09 05:54:22;;;;;;;0.80;0.40;;;;;;;5.55;95.41;96321.25;4845994;29;22119;-84
2022/01/09 05:56:51;;;;;;;0.70;0.30;;;;;;;5.49;95.77;96324.31;4831228;29;20638;-84
2022/01/09 05:59:22;;;;;;;0.60;0.30;;;;;;;5.41;94.93;96332.66;4847802;29;20660;-84
2022/01/09 06:01:50;;;;;;;0.60;0.27;;;;;;;5.33;95.54;96345.31;4848281;29;20648;-84
2022/01/09 06:04:18;;;;;;;0.70;0.30;;;;;;;5.35;96.20;96351.22;4831661;29;20654;-84
2022/01/09 06:06:46;;;;;;;0.70;0.30;;;;;;;5.34;96.73;96357.31;4847330;29;20680;-84
2022/01/09 06:09:14;;;;;;;0.70;0.30;;;;;;;5.31;96.73;96356.75;4848831;29;21100;-84
2022/01/09 06:11:42;;;;;;;0.70;0.30;;;;;;;5.33;96.44;96355.66;4849726;29;20634;-84
2022/01/09 06:14:10;;;;;;;0.97;0.30;;;;;;;5.37;96.57;96380.34;4847030;29;20637;-84
2022/01/09 06:16:40;;;;;;;0.70;0.30;;;;;;;5.38;95.95;96381.16;4844361;29;20648;-84
2022/01/09 06:19:08;;;;;;;1.43;0.40;;;;;;;5.36;96.19;96381.28;4833424;29;20681;-84
2022/01/09 06:21:36;;;;;;;0.70;0.40;;;;;;;5.32;95.78;96392.81;4833357;29;20653;-83
2022/01/09 06:24:05;;;;;;;1.17;0.30;;;;;;;5.32;96.05;96385.06;4830098;29;20889;-84
2022/01/09 06:26:33;;;;;;;2.20;0.60;;;;;;;5.38;96.38;96394.94;4845956;29;20652;-84
2022/01/09 06:29:01;;;;;;;0.87;0.47;;;;;;;5.36;95.65;96407.13;4830619;29;20738;-84
2022/01/09 06:31:29;;;;;;;1.67;0.60;;;;;;;5.35;96.36;96413.25;4847590;29;20655;-85
2022/01/09 06:33:59;;;;;;;1.50;0.53;;;;;;;5.39;96.47;96417.22;4860986;29;21074;-84
2022/01/09 06:36:27;;;;;;;1.77;0.60;;;;;;;5.39;96.34;96432.72;4847640;29;20647;-84
2022/01/09 06:38:55;;;;;;;1.97;0.70;;;;;;;5.38;96.28;96433.69;4831590;29;21089;-84
2022/01/09 06:41:23;;;;;;;0.97;0.60;;;;;;;5.42;96.41;96426.53;4849278;29;20747;-84
2022/01/09 06:43:52;;;;;;;3.10;0.80;;;;;;;5.46;96.72;96441.69;4847247;29;20745;-84
2022/01/09 06:46:21;;;;;;;1.57;0.80;;;;;;;5.50;96.67;96444.84;4849609;29;21175;-84
2022/01/09 06:48:49;;;;;;;1.63;0.90;;;;;;;5.52;96.23;96461.91;4846119;29;21234;-84
2022/01/09 06:51:18;;;;;;;4.37;0.80;;;;;;;5.51;96.51;96457.66;4833645;29;20654;-84
2022/01/09 06:53:46;;;;;;;1.10;0.50;;;;;;;5.56;96.18;96458.13;4849087;29;22334;-85
2022/01/09 06:56:15;;;;;;;2.13;0.70;;;;;;;5.59;96.08;96465.66;4849525;29;20644;-84
2022/01/09 06:58:43;;;;;;;3.77;0.73;;;;;;;5.61;96.08;96474.97;4850764;29;20657;-84
2022/01/09 07:01:11;;;;;;;2.57;0.80;;;;;;;5.58;95.85;96487.31;4848150;29;20653;-84
2022/01/09 07:03:39;;;;;;;1.33;0.70;;;;;;;5.48;96.27;96482.94;4847485;29;20658;-85
2022/01/09 07:06:07;;;;;;;1.93;0.90;;;;;;;5.51;95.91;96496.44;4832748;29;20672;-84
2022/01/09 07:08:37;;;;;;;4.30;0.90;;;;;;;5.59;95.65;96501.84;4844104;29;20665;-84
2022/01/09 07:11:06;;;;;;;1.37;0.60;;;;;;;5.55;95.83;96517.72;4829707;29;20645;-84
2022/01/09 07:13:34;;;;;;;1.70;0.70;;;;;;;5.60;95.76;96508.69;4863562;29;22147;-84
2022/01/09 07:16:02;;;;;;;1.83;0.70;;;;;;;5.64;95.47;96515.28;4859239;29;21137;-84
2022/01/09 07:18:30;;;;;;;1.80;0.97;;;;;;;5.60;96.10;96530.19;4845875;29;20656;-84
2022/01/09 07:20:59;;;;;;;2.03;0.70;;;;;;;5.57;96.18;96524.44;4832748;29;20645;-84
2022/01/09 07:23:27;;;;;;;1.33;0.60;;;;;;;5.60;95.53;96525.97;4846433;29;20645;-84
2022/01/09 07:25:56;;;;;;;1.47;0.67;;;;;;;5.58;96.07;96536.44;4845063;29;20643;-83
2022/01/09 07:28:24;;;;;;;1.73;0.90;;;;;;;5.55;95.71;96539.22;4832082;29;20655;-84
2022/01/09 07:30:52;;;;;;;5.50;1.30;;;;;;;5.57;95.92;96560.63;4847075;29;20652;-84
2022/01/09 07:33:20;;;;;;;7.27;1.40;;;;;;;5.65;95.36;96553.97;4846131;29;20657;-85
2022/01/09 07:35:49;;;;;;;3.40;1.10;;;;;;;5.63;95.25;96560.16;4867540;29;21268;-84
2022/01/09 07:38:17;;;;;;;5.30;1.70;;;;;;;5.63;95.43;96570.50;4850872;29;20684;-84
2022/01/09 07:40:47;;;;;;;3.07;1.40;;;;;;;5.58;95.58;96582.13;4847098;29;20688;-84
2022/01/09 07:43:16;;;;;;;6.33;1.63;;;;;;;5.63;95.16;96584.25;4847281;29;20655;-84
2022/01/09 07:45:45;;;;;;;4.93;1.57;;;;;;;5.61;95.81;96582.75;4847611;29;20646;-84
2022/01/09 07:48:13;;;;;;;5.40;1.40;;;;;;;5.62;95.18;96592.13;4835064;29;20670;-85
2022/01/09 07:50:41;;;;;;;6.50;1.63;;;;;;;5.63;95.21;96596.38;4848092;29;20635;-84
2022/01/09 07:53:10;;;;;;;6.10;1.53;;;;;;;5.63;95.19;96586.03;4847961;29;20640;-84
2022/01/09 07:55:39;;;;;;;6.70;2.13;;;;;;;5.61;94.68;96599.06;4843921;29;20639;-84
2022/01/09 07:58:07;;;;;;;4.63;1.40;;;;;;;5.64;93.61;96600.63;4845748;29;20669;-84
2022/01/09 08:00:36;;;;;;;2.60;1.33;;;;;;;5.66;93.80;96609.06;4846989;29;20663;-84
2022/01/09 08:03:04;;;;;;;4.70;1.50;;;;;;;5.65;93.59;96618.59;4829525;29;20662;-84
2022/01/09 08:05:33;;;;;;;4.50;1.40;;;;;;;5.66;92.98;96629.75;4846334;29;23017;-84
2022/01/09 08:08:01;;;;;;;4.80;1.60;;;;;;;5.65;92.65;96628.94;4845619;29;20653;-84
2022/01/09 08:10:29;;;;;;;4.53;1.53;;;;;;;5.69;92.79;96639.88;4849361;29;20648;-84
2022/01/09 08:12:57;;;;;;;5.20;1.80;;;;;;;5.70;93.04;96644.13;4847993;29;21480;-84
2022/01/09 08:15:25;;;;;;;8.20;1.70;;;;;;;5.79;92.85;96651.25;4845899;29;20666;-84
2022/01/09 08:17:55;;;;;;;7.30;1.47;;;;;;;5.79;92.35;96653.84;4846736;29;20638;-84
2022/01/09 08:20:23;;;;;;;6.10;1.33;;;;;;;5.78;91.70;96665.09;4845394;29;20650;-85
2022/01/09 08:22:51;;;;;;;7.27;1.70;;;;;;;5.80;91.56;96668.41;4829933;29;20656;-84
2022/01/09 08:25:19;;;;;;;6.93;1.70;;;;;;;5.81;91.14;96668.28;4844855;29;21768;-84
2022/01/09 08:27:48;;;;;;;4.63;1.50;;;;;;;5.85;91.17;96676.63;4863584;29;20647;-84
2022/01/09 08:30:18;;;;;;;4.03;1.40;;;;;;;5.85;91.31;96685.25;4846796;29;20730;-84
2022/01/09 08:32:47;;;;;;;3.93;1.60;;;;;;;5.89;90.26;96689.25;4842683;29;20638;-85
2022/01/09 08:35:17;;;;;;;4.00;1.20;;;;;;;5.90;90.22;96697.84;4858851;29;20648;-85
2022/01/09 08:37:46;;;;;;;2.20;1.43;;;;;;;5.76;89.99;96701.44;4846202;29;20748;-85
2022/01/09 08:40:19;;;;;;;9.00;1.50;;;;;;;5.74;89.74;96710.22;4845263;29;20703;-84
2022/01/09 08:42:50;;;;;;;8.17;1.60;;;;;;;5.71;89.71;96710.41;4846887;29;20653;-84
2022/01/09 08:45:19;;;;;;;5.00;1.40;;;;;;;5.69;89.91;96707.94;4844914;29;20648;-84
2022/01/09 08:47:47;;;;;;;4.60;1.67;;;;;;;5.70;89.73;96713.94;4853253;29;20657;-84
2022/01/09 08:50:18;;;;;;;5.00;1.57;;;;;;;5.73;89.74;96721.47;4849789;29;21287;-84
2022/01/09 08:52:46;;;;;;;6.10;1.57;;;;;;;5.75;89.77;96719.63;4851864;29;21803;-84
2022/01/09 08:55:15;;;;;;;5.00;1.67;;;;;;;5.76;89.38;96734.22;4849609;29;20653;-83
2022/01/09 08:57:43;;;;;;;5.77;1.93;;;;;;;5.80;89.21;96728.72;4830723;29;20741;-84
2022/01/09 09:00:12;;;;;;;4.00;1.73;;;;;;;5.82;88.69;96736.38;4831912;29;21241;-85
2022/01/09 09:02:41;;;;;;;7.00;2.03;;;;;;;5.83;89.16;96743.19;4856469;29;20649;-84
2022/01/09 09:05:10;;;;;;;5.03;1.60;;;;;;;5.86;89.13;96742.97;4847788;29;20653;-83
2022/01/09 09:07:39;;;;;;;5.20;1.67;;;;;;;5.88;88.34;96747.09;4849922;29;21248;-83
2022/01/09 09:10:08;;;;;;;4.57;1.63;;;;;;;5.91;88.42;96748.63;4848564;29;20636;-85
2022/01/09 09:12:39;;;;;;;6.93;1.80;;;;;;;5.94;87.78;96748.41;4864237;29;20667;-85
2022/01/09 09:15:08;;;;;;;7.40;1.67;;;;;;;5.98;87.24;96749.84;4840836;29;20992;-85
2022/01/09 09:17:36;;;;;;;6.30;1.73;;;;;;;6.01;87.04;96757.41;4852292;29;20648;-86
2022/01/09 09:20:06;;;;;;;5.90;2.30;;;;;;;6.05;87.01;96764.00;4855090;29;20746;-86
2022/01/09 09:22:35;;;;;;;5.80;1.83;;;;;;;6.07;87.28;96768.13;4852038;29;20667;-85
2022/01/09 09:25:06;;;;;;;7.33;1.67;;;;;;;6.09;86.02;96761.09;4848373;29;20637;-84
2022/01/09 09:27:34;;;;;;;3.63;1.20;;;;;;;6.12;86.27;96776.41;4851014;29;20740;-84
2022/01/09 09:30:05;;;;;;;7.53;2.13;;;;;;;6.14;85.55;96772.75;4852331;29;20712;-85
2022/01/09 09:32:33;;;;;;;4.27;1.50;;;;;;;6.12;85.33;96782.38;4856703;29;20653;-84
2022/01/09 09:35:03;;;;;;;4.90;1.57;;;;;;;6.10;84.41;96784.28;4850626;29;20637;-84
2022/01/09 09:37:31;;;;;;;6.43;1.70;;;;;;;6.12;84.40;96794.50;4846970;29;20656;-85
2022/01/09 09:39:59;;;;;;;5.17;1.30;;;;;;;6.16;85.10;96796.78;4854892;29;20658;-85
2022/01/09 09:42:29;;;;;;;5.27;1.37;;;;;;;6.18;84.10;96805.25;4839687;29;20649;-84
2022/01/09 09:45:00;;;;;;;7.47;1.90;;;;;;;6.14;84.52;96797.81;4853891;29;20641;-85
2022/01/09 09:47:30;;;;;;;4.87;1.43;;;;;;;6.17;84.65;96801.00;4853339;29;21316;-85
2022/01/09 09:49:59;;;;;;;8.20;1.77;;;;;;;6.14;83.67;96811.56;4869294;29;20648;-85
2022/01/09 09:52:27;;;;;;;4.90;1.23;;;;;;;6.21;84.00;96812.78;4849556;29;20722;-85
2022/01/09 09:54:55;;;;;;;5.27;1.87;;;;;;;6.24;84.32;96807.41;4850267;29;20647;-85
2022/01/09 09:57:24;;;;;;;7.30;2.03;;;;;;;6.29;83.82;96820.00;4836944;29;20649;-86
2022/01/09 10:00:01;;;;;;;5.10;1.80;;;;;;;6.26;83.23;96823.63;4850868;29;20661;-86
2022/01/09 10:02:41;;;;;;;4.57;1.40;;;;;;;6.30;84.28;96817.31;4867332;29;20644;-87
2022/01/09 10:05:11;;;;;;;6.63;1.47;;;;;;;6.40;83.94;96818.28;4852224;29;20633;-85
2022/01/09 10:07:39;;;;;;;9.80;1.90;;;;;;;6.48;84.43;96804.78;4855751;29;20672;-87
2022/01/09 10:10:11;;;;;;;5.50;1.47;;;;;;;6.60;82.69;96812.50;4853247;29;20641;-84
2022/01/09 10:12:39;;;;;;;4.83;1.27;;;;;;;6.72;83.06;96819.34;4848701;29;21422;-83
2022/01/09 10:15:11;;;;;;;5.77;1.53;;;;;;;6.81;81.07;96822.09;4849934;29;21072;-83
2022/01/09 10:17:42;;;;;;;2.80;1.23;;;;;;;6.89;82.30;96826.72;4864341;29;20655;-82
2022/01/09 10:20:14;;;;;;;4.33;1.40;;;;;;;7.08;81.19;96827.81;4845775;29;21022;-83
2022/01/09 10:22:44;;;;;;;7.90;1.33;;;;;;;7.29;81.14;96837.41;4847699;29;21038;-83
2022/01/09 10:25:32;;;;;;;6.13;1.23;;;;;;;7.47;80.39;96838.59;4846262;29;20646;-84
2022/01/09 10:28:04;;;;;;;3.40;1.40;;;;;;;7.50;78.92;96826.22;4831412;29;20664;-83
2022/01/09 10:30:36;;;;;;;8.23;1.60;;;;;;;7.54;79.54;96842.38;4848822;29;20637;-83
2022/01/09 10:33:08;;;;;;;7.30;1.60;;;;;;;7.57;79.32;96832.59;4832672;29;21546;-83
2022/01/09 10:35:38;;;;;;;6.30;1.67;;;;;;;7.58;78.94;96833.44;4863254;29;20656;-84
2022/01/09 10:38:13;;;;;;;3.13;1.60;;;;;;;7.46;77.97;96839.56;4848572;29;20642;-83
2022/01/09 10:40:44;;;;;;;5.90;2.07;;;;;;;7.41;79.54;96857.19;4847923;29;21241;-83
2022/01/09 10:43:14;;;;;;;3.43;1.57;;;;;;;7.34;80.58;96845.66;4848493;29;20648;-83
2022/01/09 10:45:46;;;;;;;5.73;1.67;;;;;;;7.29;80.23;96855.56;4833727;29;21011;-83
2022/01/09 10:48:18;;;;;;;5.67;2.50;;;;;;;7.36;81.07;96863.69;4862294;29;20657;-83
2022/01/09 10:50:47;;;;;;;4.50;1.83;;;;;;;7.46;81.37;96862.88;4848250;29;20650;-83
2022/01/09 10:53:24;;;;;;;4.23;1.80;;;;;;;7.53;80.53;96858.88;4862282;29;20643;-83
2022/01/09 10:56:10;;;;;;;5.50;1.80;;;;;;;7.48;79.38;96873.16;4844164;29;20649;-83
2022/01/09 10:58:41;;;;;;;6.90;2.53;;;;;;;7.52;81.21;96875.41;4847775;29;20658;-83
2022/01/09 11:01:18;;;;;;;3.00;1.23;;;;;;;7.48;80.72;96877.38;4846974;29;20668;-83
2022/01/09 11:03:48;;;;;;;3.87;1.50;;;;;;;7.44;79.46;96882.91;4847910;29;20647;-83
2022/01/09 11:06:18;;;;;;;9.43;3.00;;;;;;;7.40;80.29;96881.50;4845044;29;20657;-83
2022/01/09 11:08:46;;;;;;;5.50;2.40;;;;;;;7.33;80.89;96885.50;4850331;29;20646;-83
2022/01/09 11:11:22;;;;;;;6.10;2.33;;;;;;;7.31;80.20;96886.56;4830382;29;20645;-83
2022/01/09 11:13:53;;;;;;;5.67;2.20;;;;;;;7.27;80.71;96890.31;4845153;29;20641;-83
2022/01/09 11:16:36;;;;;;;5.90;2.33;;;;;;;7.25;80.67;96879.25;4843572;29;20645;-83
2022/01/09 11:19:09;;;;;;;8.70;1.80;;;;;;;7.23;81.38;96897.50;4848300;29;20653;-83
2022/01/09 11:21:40;;;;;;;4.20;1.37;;;;;;;7.19;81.39;96888.28;4847984;29;20675;-83
2022/01/09 11:24:37;;;;;;;4.63;1.40;;;;;;;7.14;80.89;96882.63;4847442;29;20643;-83
2022/01/09 11:27:15;;;;;;;4.90;1.50;;;;;;;7.15;80.41;96880.84;4841146;29;20742;-83
2022/01/09 11:29:50;;;;;;;2.10;1.03;;;;;;;7.15;81.20;96888.63;4844185;29;20678;-83
2022/01/09 11:32:31;;;;;;;1.97;1.10;;;;;;;7.24;81.60;96886.16;4847678;29;20633;-83
2022/01/09 11:35:05;;;;;;;4.07;1.50;;;;;;;7.33;82.17;96885.50;4847831;29;20735;-83
2022/01/09 11:37:44;;;;;;;3.20;1.27;;;;;;;7.31;80.65;96896.94;4860474;29;20659;-83
2022/01/09 11:40:23;;;;;;;3.10;1.47;;;;;;;7.33;80.82;96895.03;4848640;29;20804;-83
2022/01/09 11:43:03;;;;;;;3.57;1.40;;;;;;;7.30;81.03;96885.72;4848068;29;20676;-83
2022/01/09 11:45:45;;;;;;;3.70;1.50;;;;;;;7.29;80.82;96886.69;4866151;29;20764;-83
2022/01/09 11:48:16;;;;;;;4.40;2.10;;;;;;;7.30;80.61;96888.31;4835756;29;20219;-83
2022/01/09 11:51:16;;;;;;;3.40;1.60;;;;;;;7.35;80.16;96887.97;4834192;29;21226;-83
2022/01/09 11:54:01;;;;;;;2.83;1.57;;;;;;;7.27;80.96;96885.94;4844672;29;20633;-84